sensor_id;sensor_type;location;lat;lon;timestamp;temperature;humidity
32522;DHT22;18963;51.504;5.316;2022-10-31T00:00:18;11.40;99.90
32522;DHT22;18963;51.504;5.316;2022-10-31T00:02:44;11.30;99.90
32522;DHT22;18963;51.504;5.316;2022-10-31T00:05:09;11.30;99.90
32522;DHT22;18963;51.504;5.316;2022-10-31T00:07:35;11.20;99.90
32522;DHT22;18963;51.504;5.316;2022-10-31T00:10:00;11.20;99.90
32522;DHT22;18963;51.504;5.316;2022-10-31T00:12:26;11.20;99.90
32522;DHT22;18963;51.504;5.316;2022-10-31T00:14:52;11.20;99.90
32522;DHT22;18963;51.504;5.316;2022-10-31T00:17:18;11.20;99.90
32522;DHT22;18963;51.504;5.316;2022-10-31T00:19:43;11.20;99.90
32522;DHT22;18963;51.504;5.316;2022-10-31T00:22:09;11.20;99.90
32522;DHT22;18963;51.504;5.316;2022-10-31T00:24:35;11.20;99.90
32522;DHT22;18963;51.504;5.316;2022-10-31T00:27:00;11.20;99.90
32522;DHT22;18963;51.504;5.316;2022-10-31T00:29:26;11.20;99.90
32522;DHT22;18963;51.504;5.316;2022-10-31T00:31:52;11.20;99.90
32522;DHT22;18963;51.504;5.316;2022-10-31T00:34:17;11.20;99.90
32522;DHT22;18963;51.504;5.316;2022-10-31T00:36:43;11.10;99.90
32522;DHT22;18963;51.504;5.316;2022-10-31T00:39:09;11.10;99.90
32522;DHT22;18963;51.504;5.316;2022-10-31T00:41:34;11.00;99.90
32522;DHT22;18963;51.504;5.316;2022-10-31T00:44:00;11.10;99.90
32522;DHT22;18963;51.504;5.316;2022-10-31T00:46:25;11.00;99.90
32522;DHT22;18963;51.504;5.316;2022-10-31T00:48:51;11.00;99.90
32522;DHT22;18963;51.504;5.316;2022-10-31T00:51:17;11.00;99.90
32522;DHT22;18963;51.504;5.316;2022-10-31T00:53:42;11.00;99.90
32522;DHT22;18963;51.504;5.316;2022-10-31T00:56:08;11.00;99.90
32522;DHT22;18963;51.504;5.316;2022-10-31T00:58:34;11.00;99.90
32522;DHT22;18963;51.504;5.316;2022-10-31T01:00:59;10.90;99.90
32522;DHT22;18963;51.504;5.316;2022-10-31T01:03:31;10.90;99.90
32522;DHT22;18963;51.504;5.316;2022-10-31T01:06:07;10.90;99.90
32522;DHT22;18963;51.504;5.316;2022-10-31T01:08:34;10.90;99.90
32522;DHT22;18963;51.504;5.316;2022-10-31T01:11:13;10.90;99.90
32522;DHT22;18963;51.504;5.316;2022-10-31T01:13:39;11.00;99.90
32522;DHT22;18963;51.504;5.316;2022-10-31T01:16:05;11.10;99.90
32522;DHT22;18963;51.504;5.316;2022-10-31T01:18:33;11.10;99.90
32522;DHT22;18963;51.504;5.316;2022-10-31T01:21:01;11.20;99.90
32522;DHT22;18963;51.504;5.316;2022-10-31T01:23:27;11.10;99.90
32522;DHT22;18963;51.504;5.316;2022-10-31T01:26:20;11.10;99.90
32522;DHT22;18963;51.504;5.316;2022-10-31T01:28:47;11.00;99.90
32522;DHT22;18963;51.504;5.316;2022-10-31T01:31:13;11.00;99.90
32522;DHT22;18963;51.504;5.316;2022-10-31T01:33:38;10.90;99.90
32522;DHT22;18963;51.504;5.316;2022-10-31T01:36:19;10.80;99.90
32522;DHT22;18963;51.504;5.316;2022-10-31T01:38:46;10.70;99.90
32522;DHT22;18963;51.504;5.316;2022-10-31T01:41:13;10.70;99.90
32522;DHT22;18963;51.504;5.316;2022-10-31T01:46:13;10.70;99.90
32522;DHT22;18963;51.504;5.316;2022-10-31T01:48:40;10.70;99.90
32522;DHT22;18963;51.504;5.316;2022-10-31T01:51:06;10.80;99.90
32522;DHT22;18963;51.504;5.316;2022-10-31T01:53:33;10.70;99.90
32522;DHT22;18963;51.504;5.316;2022-10-31T01:56:00;10.70;99.90
32522;DHT22;18963;51.504;5.316;2022-10-31T01:58:27;10.70;99.90
32522;DHT22;18963;51.504;5.316;2022-10-31T02:00:55;10.70;99.90
32522;DHT22;18963;51.504;5.316;2022-10-31T02:03:22;10.70;99.90
32522;DHT22;18963;51.504;5.316;2022-10-31T02:05:49;10.60;99.90
32522;DHT22;18963;51.504;5.316;2022-10-31T02:08:33;10.60;99.90
32522;DHT22;18963;51.504;5.316;2022-10-31T02:11:00;10.60;99.90
32522;DHT22;18963;51.504;5.316;2022-10-31T02:13:28;10.50;99.90
32522;DHT22;18963;51.504;5.316;2022-10-31T02:15:58;10.60;99.90
32522;DHT22;18963;51.504;5.316;2022-10-31T02:18:26;10.60;99.90
32522;DHT22;18963;51.504;5.316;2022-10-31T02:27:16;10.50;99.90
32522;DHT22;18963;51.504;5.316;2022-10-31T02:35:54;10.10;99.90
32522;DHT22;18963;51.504;5.316;2022-10-31T02:38:38;10.00;99.90
32522;DHT22;18963;51.504;5.316;2022-10-31T02:44:16;9.80;99.90
32522;DHT22;18963;51.504;5.316;2022-10-31T02:46:50;9.60;99.90
32522;DHT22;18963;51.504;5.316;2022-10-31T02:52:18;9.60;99.90
32522;DHT22;18963;51.504;5.316;2022-10-31T02:54:45;9.70;99.90
32522;DHT22;18963;51.504;5.316;2022-10-31T02:57:11;9.80;99.90
32522;DHT22;18963;51.504;5.316;2022-10-31T02:59:48;9.90;99.90
32522;DHT22;18963;51.504;5.316;2022-10-31T03:02:43;9.90;99.90
32522;DHT22;18963;51.504;5.316;2022-10-31T03:10:56;10.00;99.90
32522;DHT22;18963;51.504;5.316;2022-10-31T03:13:39;10.00;99.90
32522;DHT22;18963;51.504;5.316;2022-10-31T03:16:19;10.10;99.90
32522;DHT22;18963;51.504;5.316;2022-10-31T03:18:59;10.00;99.90
32522;DHT22;18963;51.504;5.316;2022-10-31T03:24:10;10.10;99.90
32522;DHT22;18963;51.504;5.316;2022-10-31T03:26:41;10.00;99.90
32522;DHT22;18963;51.504;5.316;2022-10-31T03:29:11;10.00;99.90
32522;DHT22;18963;51.504;5.316;2022-10-31T03:32:04;9.90;99.90
32522;DHT22;18963;51.504;5.316;2022-10-31T03:34:31;9.90;99.90
32522;DHT22;18963;51.504;5.316;2022-10-31T03:37:00;9.90;99.90
32522;DHT22;18963;51.504;5.316;2022-10-31T03:39:28;9.80;99.90
32522;DHT22;18963;51.504;5.316;2022-10-31T03:41:58;9.80;99.90
32522;DHT22;18963;51.504;5.316;2022-10-31T03:44:26;9.80;99.90
32522;DHT22;18963;51.504;5.316;2022-10-31T03:46:52;9.80;99.90
32522;DHT22;18963;51.504;5.316;2022-10-31T03:49:18;9.80;99.90
32522;DHT22;18963;51.504;5.316;2022-10-31T03:51:54;9.80;99.90
32522;DHT22;18963;51.504;5.316;2022-10-31T03:54:41;9.80;99.90
32522;DHT22;18963;51.504;5.316;2022-10-31T03:59:55;9.80;99.90
32522;DHT22;18963;51.504;5.316;2022-10-31T04:02:27;9.80;99.90
32522;DHT22;18963;51.504;5.316;2022-10-31T04:04:54;9.80;99.90
32522;DHT22;18963;51.504;5.316;2022-10-31T04:07:19;9.90;99.90
32522;DHT22;18963;51.504;5.316;2022-10-31T04:09:47;9.80;99.90
32522;DHT22;18963;51.504;5.316;2022-10-31T04:12:16;9.80;99.90
32522;DHT22;18963;51.504;5.316;2022-10-31T04:14:44;9.80;99.90
32522;DHT22;18963;51.504;5.316;2022-10-31T04:17:16;9.70;99.90
32522;DHT22;18963;51.504;5.316;2022-10-31T04:19:43;9.70;99.90
32522;DHT22;18963;51.504;5.316;2022-10-31T04:22:09;9.70;99.90
32522;DHT22;18963;51.504;5.316;2022-10-31T04:24:35;9.60;99.90
32522;DHT22;18963;51.504;5.316;2022-10-31T04:27:02;9.60;99.90
32522;DHT22;18963;51.504;5.316;2022-10-31T04:29:27;9.60;99.90
32522;DHT22;18963;51.504;5.316;2022-10-31T04:31:53;9.70;99.90
32522;DHT22;18963;51.504;5.316;2022-10-31T04:34:18;9.70;99.90
32522;DHT22;18963;51.504;5.316;2022-10-31T04:36:44;9.70;99.90
32522;DHT22;18963;51.504;5.316;2022-10-31T04:39:09;9.80;99.90
32522;DHT22;18963;51.504;5.316;2022-10-31T04:41:35;9.90;99.90
32522;DHT22;18963;51.504;5.316;2022-10-31T04:44:00;9.90;99.90
32522;DHT22;18963;51.504;5.316;2022-10-31T04:46:26;10.00;99.90
32522;DHT22;18963;51.504;5.316;2022-10-31T04:48:51;10.10;99.90
32522;DHT22;18963;51.504;5.316;2022-10-31T04:51:17;10.10;99.90
32522;DHT22;18963;51.504;5.316;2022-10-31T04:53:42;10.20;99.90
32522;DHT22;18963;51.504;5.316;2022-10-31T04:56:08;10.20;99.90
32522;DHT22;18963;51.504;5.316;2022-10-31T04:58:33;10.20;99.90
32522;DHT22;18963;51.504;5.316;2022-10-31T05:00:59;10.30;99.90
32522;DHT22;18963;51.504;5.316;2022-10-31T05:03:25;10.30;99.90
32522;DHT22;18963;51.504;5.316;2022-10-31T05:05:50;10.30;99.90
32522;DHT22;18963;51.504;5.316;2022-10-31T05:08:16;10.30;99.90
32522;DHT22;18963;51.504;5.316;2022-10-31T05:10:41;10.20;99.90
32522;DHT22;18963;51.504;5.316;2022-10-31T05:13:07;10.30;99.90
32522;DHT22;18963;51.504;5.316;2022-10-31T05:15:33;10.20;99.90
32522;DHT22;18963;51.504;5.316;2022-10-31T05:17:59;10.20;99.90
32522;DHT22;18963;51.504;5.316;2022-10-31T05:20:27;10.10;99.90
32522;DHT22;18963;51.504;5.316;2022-10-31T05:22:55;10.10;99.90
32522;DHT22;18963;51.504;5.316;2022-10-31T05:25:23;10.10;99.90
32522;DHT22;18963;51.504;5.316;2022-10-31T05:27:51;10.20;99.90
32522;DHT22;18963;51.504;5.316;2022-10-31T05:30:22;10.20;99.90
32522;DHT22;18963;51.504;5.316;2022-10-31T05:32:49;10.20;99.90
32522;DHT22;18963;51.504;5.316;2022-10-31T05:35:25;10.30;99.90
32522;DHT22;18963;51.504;5.316;2022-10-31T05:37:51;10.30;99.90
32522;DHT22;18963;51.504;5.316;2022-10-31T05:40:17;10.30;99.90
32522;DHT22;18963;51.504;5.316;2022-10-31T05:42:43;10.30;99.90
32522;DHT22;18963;51.504;5.316;2022-10-31T05:45:10;10.40;99.90
32522;DHT22;18963;51.504;5.316;2022-10-31T05:47:36;10.40;99.90
32522;DHT22;18963;51.504;5.316;2022-10-31T05:50:01;10.40;99.90
32522;DHT22;18963;51.504;5.316;2022-10-31T05:52:27;10.50;99.90
32522;DHT22;18963;51.504;5.316;2022-10-31T05:54:52;10.50;99.90
32522;DHT22;18963;51.504;5.316;2022-10-31T05:57:18;10.50;99.90
32522;DHT22;18963;51.504;5.316;2022-10-31T05:59:44;10.40;99.90
32522;DHT22;18963;51.504;5.316;2022-10-31T06:02:09;10.40;99.90
32522;DHT22;18963;51.504;5.316;2022-10-31T06:04:35;10.30;99.90
32522;DHT22;18963;51.504;5.316;2022-10-31T06:07:00;10.30;99.90
32522;DHT22;18963;51.504;5.316;2022-10-31T06:09:26;10.30;99.90
32522;DHT22;18963;51.504;5.316;2022-10-31T06:11:51;10.30;99.90
32522;DHT22;18963;51.504;5.316;2022-10-31T06:14:17;10.30;99.90
32522;DHT22;18963;51.504;5.316;2022-10-31T06:16:45;10.30;99.90
32522;DHT22;18963;51.504;5.316;2022-10-31T06:19:10;10.40;99.90
32522;DHT22;18963;51.504;5.316;2022-10-31T06:21:36;10.40;99.90
32522;DHT22;18963;51.504;5.316;2022-10-31T06:24:01;10.50;99.90
32522;DHT22;18963;51.504;5.316;2022-10-31T06:26:27;10.50;99.90
32522;DHT22;18963;51.504;5.316;2022-10-31T06:28:53;10.50;99.90
32522;DHT22;18963;51.504;5.316;2022-10-31T06:31:18;10.50;99.90
32522;DHT22;18963;51.504;5.316;2022-10-31T06:33:44;10.50;99.90
32522;DHT22;18963;51.504;5.316;2022-10-31T06:36:10;10.50;99.90
32522;DHT22;18963;51.504;5.316;2022-10-31T06:38:35;10.50;99.90
32522;DHT22;18963;51.504;5.316;2022-10-31T06:41:04;10.50;99.90
32522;DHT22;18963;51.504;5.316;2022-10-31T06:43:30;10.60;99.90
32522;DHT22;18963;51.504;5.316;2022-10-31T06:45:56;10.60;99.90
32522;DHT22;18963;51.504;5.316;2022-10-31T06:48:22;10.60;99.90
32522;DHT22;18963;51.504;5.316;2022-10-31T06:50:48;10.60;99.90
32522;DHT22;18963;51.504;5.316;2022-10-31T06:53:14;10.60;99.90
32522;DHT22;18963;51.504;5.316;2022-10-31T06:55:40;10.70;99.90
32522;DHT22;18963;51.504;5.316;2022-10-31T06:58:06;10.70;99.90
32522;DHT22;18963;51.504;5.316;2022-10-31T07:00:33;10.70;99.90
32522;DHT22;18963;51.504;5.316;2022-10-31T07:05:25;10.70;99.90
32522;DHT22;18963;51.504;5.316;2022-10-31T07:07:55;10.80;99.90
32522;DHT22;18963;51.504;5.316;2022-10-31T07:10:21;10.80;99.90
32522;DHT22;18963;51.504;5.316;2022-10-31T07:12:47;10.80;99.90
32522;DHT22;18963;51.504;5.316;2022-10-31T07:15:13;10.80;99.90
32522;DHT22;18963;51.504;5.316;2022-10-31T07:17:38;10.90;99.90
32522;DHT22;18963;51.504;5.316;2022-10-31T07:20:04;10.90;99.90
32522;DHT22;18963;51.504;5.316;2022-10-31T07:22:35;11.00;99.90
32522;DHT22;18963;51.504;5.316;2022-10-31T07:25:00;11.00;99.90
32522;DHT22;18963;51.504;5.316;2022-10-31T07:27:26;11.10;99.90
32522;DHT22;18963;51.504;5.316;2022-10-31T07:29:52;11.20;99.90
32522;DHT22;18963;51.504;5.316;2022-10-31T07:32:17;11.30;99.90
32522;DHT22;18963;51.504;5.316;2022-10-31T07:34:43;11.40;99.90
32522;DHT22;18963;51.504;5.316;2022-10-31T07:37:08;11.50;99.90
32522;DHT22;18963;51.504;5.316;2022-10-31T07:39:34;11.60;99.90
32522;DHT22;18963;51.504;5.316;2022-10-31T07:41:59;11.70;99.90
32522;DHT22;18963;51.504;5.316;2022-10-31T07:44:25;11.80;99.90
32522;DHT22;18963;51.504;5.316;2022-10-31T07:46:50;11.90;99.90
32522;DHT22;18963;51.504;5.316;2022-10-31T07:49:16;12.00;99.90
32522;DHT22;18963;51.504;5.316;2022-10-31T07:51:42;12.10;99.90
32522;DHT22;18963;51.504;5.316;2022-10-31T07:54:07;12.10;99.90
32522;DHT22;18963;51.504;5.316;2022-10-31T07:56:33;12.20;99.90
32522;DHT22;18963;51.504;5.316;2022-10-31T07:58:58;12.30;99.90
32522;DHT22;18963;51.504;5.316;2022-10-31T08:01:24;12.40;99.90
32522;DHT22;18963;51.504;5.316;2022-10-31T08:03:49;12.50;99.90
32522;DHT22;18963;51.504;5.316;2022-10-31T08:06:15;12.60;99.90
32522;DHT22;18963;51.504;5.316;2022-10-31T08:08:40;12.70;99.90
32522;DHT22;18963;51.504;5.316;2022-10-31T08:11:06;12.90;99.90
32522;DHT22;18963;51.504;5.316;2022-10-31T08:13:32;13.10;99.90
32522;DHT22;18963;51.504;5.316;2022-10-31T08:15:58;13.20;99.90
32522;DHT22;18963;51.504;5.316;2022-10-31T08:18:29;13.40;99.90
32522;DHT22;18963;51.504;5.316;2022-10-31T08:20:54;13.50;99.90
32522;DHT22;18963;51.504;5.316;2022-10-31T08:23:23;13.50;99.90
32522;DHT22;18963;51.504;5.316;2022-10-31T08:25:49;13.50;99.90
32522;DHT22;18963;51.504;5.316;2022-10-31T08:28:15;13.50;99.90
32522;DHT22;18963;51.504;5.316;2022-10-31T08:30:41;13.40;99.90
32522;DHT22;18963;51.504;5.316;2022-10-31T08:33:15;13.50;99.90
32522;DHT22;18963;51.504;5.316;2022-10-31T08:35:42;13.50;99.90
32522;DHT22;18963;51.504;5.316;2022-10-31T08:38:09;13.60;99.90
32522;DHT22;18963;51.504;5.316;2022-10-31T08:40:36;13.60;99.90
32522;DHT22;18963;51.504;5.316;2022-10-31T08:43:15;13.60;99.90
32522;DHT22;18963;51.504;5.316;2022-10-31T08:45:42;13.60;99.90
32522;DHT22;18963;51.504;5.316;2022-10-31T08:48:11;13.60;99.90
32522;DHT22;18963;51.504;5.316;2022-10-31T08:50:37;13.60;99.90
32522;DHT22;18963;51.504;5.316;2022-10-31T08:53:05;13.70;99.90
32522;DHT22;18963;51.504;5.316;2022-10-31T08:55:35;13.70;99.90
32522;DHT22;18963;51.504;5.316;2022-10-31T08:58:02;13.70;99.90
32522;DHT22;18963;51.504;5.316;2022-10-31T09:00:28;13.80;99.90
32522;DHT22;18963;51.504;5.316;2022-10-31T09:02:58;13.90;99.90
32522;DHT22;18963;51.504;5.316;2022-10-31T09:05:25;13.90;99.90
32522;DHT22;18963;51.504;5.316;2022-10-31T09:07:51;14.00;99.90
32522;DHT22;18963;51.504;5.316;2022-10-31T09:10:20;14.10;99.90
32522;DHT22;18963;51.504;5.316;2022-10-31T09:12:45;14.10;99.90
32522;DHT22;18963;51.504;5.316;2022-10-31T09:15:11;14.20;99.90
32522;DHT22;18963;51.504;5.316;2022-10-31T09:17:37;14.30;99.90
32522;DHT22;18963;51.504;5.316;2022-10-31T09:20:02;14.40;99.90
32522;DHT22;18963;51.504;5.316;2022-10-31T09:22:28;14.40;99.90
32522;DHT22;18963;51.504;5.316;2022-10-31T09:24:53;14.50;99.90
32522;DHT22;18963;51.504;5.316;2022-10-31T09:27:19;14.50;99.90
32522;DHT22;18963;51.504;5.316;2022-10-31T09:29:44;14.60;99.90
32522;DHT22;18963;51.504;5.316;2022-10-31T09:32:10;14.50;99.90
32522;DHT22;18963;51.504;5.316;2022-10-31T09:34:35;14.60;99.90
32522;DHT22;18963;51.504;5.316;2022-10-31T09:37:01;14.60;99.90
32522;DHT22;18963;51.504;5.316;2022-10-31T09:39:27;14.70;99.90
32522;DHT22;18963;51.504;5.316;2022-10-31T09:44:50;14.70;99.90
32522;DHT22;18963;51.504;5.316;2022-10-31T09:50:22;14.80;99.90
32522;DHT22;18963;51.504;5.316;2022-10-31T09:53:02;14.90;99.90
32522;DHT22;18963;51.504;5.316;2022-10-31T09:55:39;14.90;99.90
32522;DHT22;18963;51.504;5.316;2022-10-31T09:58:13;14.90;99.90
32522;DHT22;18963;51.504;5.316;2022-10-31T10:00:40;14.90;99.90
32522;DHT22;18963;51.504;5.316;2022-10-31T10:03:25;15.00;99.90
32522;DHT22;18963;51.504;5.316;2022-10-31T10:06:18;15.10;99.90
32522;DHT22;18963;51.504;5.316;2022-10-31T10:08:45;15.10;99.90
32522;DHT22;18963;51.504;5.316;2022-10-31T10:17:29;15.40;99.90
32522;DHT22;18963;51.504;5.316;2022-10-31T10:25:22;15.50;99.90
32522;DHT22;18963;51.504;5.316;2022-10-31T10:28:14;15.60;99.90
32522;DHT22;18963;51.504;5.316;2022-10-31T10:33:30;15.60;99.90
32522;DHT22;18963;51.504;5.316;2022-10-31T10:36:04;15.60;99.90
32522;DHT22;18963;51.504;5.316;2022-10-31T10:41:19;15.60;99.90
32522;DHT22;18963;51.504;5.316;2022-10-31T10:43:48;15.70;99.90
32522;DHT22;18963;51.504;5.316;2022-10-31T10:46:19;15.70;99.90
32522;DHT22;18963;51.504;5.316;2022-10-31T10:49:17;15.70;99.90
32522;DHT22;18963;51.504;5.316;2022-10-31T10:52:08;15.80;99.90
32522;DHT22;18963;51.504;5.316;2022-10-31T10:55:32;15.80;99.90
32522;DHT22;18963;51.504;5.316;2022-10-31T10:58:01;15.90;99.90
32522;DHT22;18963;51.504;5.316;2022-10-31T11:00:31;16.00;99.90
32522;DHT22;18963;51.504;5.316;2022-10-31T11:02:57;16.00;99.90
32522;DHT22;18963;51.504;5.316;2022-10-31T11:08:43;16.20;99.90
32522;DHT22;18963;51.504;5.316;2022-10-31T11:11:27;16.30;99.90
32522;DHT22;18963;51.504;5.316;2022-10-31T11:14:12;16.40;99.90
32522;DHT22;18963;51.504;5.316;2022-10-31T11:16:42;16.40;99.90
32522;DHT22;18963;51.504;5.316;2022-10-31T11:19:25;16.40;99.90
32522;DHT22;18963;51.504;5.316;2022-10-31T11:21:54;16.50;99.90
32522;DHT22;18963;51.504;5.316;2022-10-31T11:24:40;16.60;99.90
32522;DHT22;18963;51.504;5.316;2022-10-31T11:27:13;16.70;99.90
32522;DHT22;18963;51.504;5.316;2022-10-31T11:29:39;16.70;99.90
32522;DHT22;18963;51.504;5.316;2022-10-31T11:32:04;16.70;99.90
32522;DHT22;18963;51.504;5.316;2022-10-31T11:34:36;16.80;99.90
32522;DHT22;18963;51.504;5.316;2022-10-31T11:37:11;16.80;99.90
32522;DHT22;18963;51.504;5.316;2022-10-31T11:39:41;16.80;99.90
32522;DHT22;18963;51.504;5.316;2022-10-31T11:42:08;16.90;99.90
32522;DHT22;18963;51.504;5.316;2022-10-31T11:44:33;17.00;99.90
32522;DHT22;18963;51.504;5.316;2022-10-31T11:47:06;17.10;99.90
32522;DHT22;18963;51.504;5.316;2022-10-31T11:49:39;17.10;99.90
32522;DHT22;18963;51.504;5.316;2022-10-31T11:52:28;17.20;99.90
32522;DHT22;18963;51.504;5.316;2022-10-31T11:55:01;17.30;99.90
32522;DHT22;18963;51.504;5.316;2022-10-31T11:57:47;17.30;99.90
32522;DHT22;18963;51.504;5.316;2022-10-31T12:00:47;17.40;99.90
32522;DHT22;18963;51.504;5.316;2022-10-31T12:06:05;17.50;99.90
32522;DHT22;18963;51.504;5.316;2022-10-31T12:08:35;17.50;99.90
32522;DHT22;18963;51.504;5.316;2022-10-31T12:11:11;17.60;99.90
32522;DHT22;18963;51.504;5.316;2022-10-31T12:16:34;17.70;99.90
32522;DHT22;18963;51.504;5.316;2022-10-31T12:19:06;17.70;99.90
32522;DHT22;18963;51.504;5.316;2022-10-31T12:22:29;17.70;99.90
32522;DHT22;18963;51.504;5.316;2022-10-31T12:24:47;17.70;99.90
32522;DHT22;18963;51.504;5.316;2022-10-31T12:30:19;17.70;99.90
32522;DHT22;18963;51.504;5.316;2022-10-31T12:46:06;18.00;99.90
32522;DHT22;18963;51.504;5.316;2022-10-31T12:48:52;18.00;99.90
32522;DHT22;18963;51.504;5.316;2022-10-31T12:56:24;18.40;99.90
32522;DHT22;18963;51.504;5.316;2022-10-31T12:59:01;18.40;99.90
32522;DHT22;18963;51.504;5.316;2022-10-31T13:01:35;18.50;99.90
32522;DHT22;18963;51.504;5.316;2022-10-31T13:04:12;18.50;99.90
32522;DHT22;18963;51.504;5.316;2022-10-31T13:06:48;18.50;99.90
32522;DHT22;18963;51.504;5.316;2022-10-31T13:09:23;18.50;99.90
32522;DHT22;18963;51.504;5.316;2022-10-31T13:11:55;18.40;99.90
32522;DHT22;18963;51.504;5.316;2022-10-31T13:14:36;18.40;99.90
32522;DHT22;18963;51.504;5.316;2022-10-31T13:17:04;18.40;99.90
32522;DHT22;18963;51.504;5.316;2022-10-31T13:19:38;18.30;99.90
32522;DHT22;18963;51.504;5.316;2022-10-31T13:22:12;18.30;99.90
32522;DHT22;18963;51.504;5.316;2022-10-31T13:27:41;18.20;99.90
32522;DHT22;18963;51.504;5.316;2022-10-31T13:30:23;18.20;99.90
32522;DHT22;18963;51.504;5.316;2022-10-31T13:33:29;18.10;99.90
32522;DHT22;18963;51.504;5.316;2022-10-31T13:36:00;18.20;99.90
32522;DHT22;18963;51.504;5.316;2022-10-31T13:38:51;18.30;99.90
32522;DHT22;18963;51.504;5.316;2022-10-31T13:41:38;18.20;99.90
32522;DHT22;18963;51.504;5.316;2022-10-31T13:44:18;18.30;99.90
32522;DHT22;18963;51.504;5.316;2022-10-31T13:46:45;18.40;99.90
32522;DHT22;18963;51.504;5.316;2022-10-31T13:54:42;18.40;99.90
32522;DHT22;18963;51.504;5.316;2022-10-31T14:00:00;18.30;99.90
32522;DHT22;18963;51.504;5.316;2022-10-31T14:02:31;18.30;99.90
32522;DHT22;18963;51.504;5.316;2022-10-31T14:05:06;18.20;99.90
32522;DHT22;18963;51.504;5.316;2022-10-31T14:07:32;18.20;99.90
32522;DHT22;18963;51.504;5.316;2022-10-31T14:10:16;18.10;99.90
32522;DHT22;18963;51.504;5.316;2022-10-31T14:12:46;18.10;99.90
32522;DHT22;18963;51.504;5.316;2022-10-31T14:15:18;18.10;99.90
32522;DHT22;18963;51.504;5.316;2022-10-31T14:20:40;18.10;99.90
32522;DHT22;18963;51.504;5.316;2022-10-31T14:23:30;18.10;99.90
32522;DHT22;18963;51.504;5.316;2022-10-31T14:28:45;17.90;99.90
32522;DHT22;18963;51.504;5.316;2022-10-31T14:31:31;17.80;99.90
32522;DHT22;18963;51.504;5.316;2022-10-31T14:50:49;17.30;99.90
32522;DHT22;18963;51.504;5.316;2022-10-31T14:55:48;17.30;99.90
32522;DHT22;18963;51.504;5.316;2022-10-31T14:59:00;17.20;99.90
32522;DHT22;18963;51.504;5.316;2022-10-31T15:01:21;17.20;99.90
32522;DHT22;18963;51.504;5.316;2022-10-31T15:03:47;17.20;99.90
32522;DHT22;18963;51.504;5.316;2022-10-31T15:06:16;17.10;99.90
32522;DHT22;18963;51.504;5.316;2022-10-31T15:08:51;17.10;99.90
32522;DHT22;18963;51.504;5.316;2022-10-31T15:13:58;16.90;99.90
32522;DHT22;18963;51.504;5.316;2022-10-31T15:16:42;16.80;99.90
32522;DHT22;18963;51.504;5.316;2022-10-31T15:19:12;16.80;99.90
32522;DHT22;18963;51.504;5.316;2022-10-31T15:21:44;16.70;99.90
32522;DHT22;18963;51.504;5.316;2022-10-31T15:24:14;16.70;99.90
32522;DHT22;18963;51.504;5.316;2022-10-31T15:26:46;16.60;99.90
32522;DHT22;18963;51.504;5.316;2022-10-31T15:29:17;16.50;99.90
32522;DHT22;18963;51.504;5.316;2022-10-31T15:31:54;16.40;99.90
32522;DHT22;18963;51.504;5.316;2022-10-31T15:34:39;16.30;99.90
32522;DHT22;18963;51.504;5.316;2022-10-31T15:37:11;16.20;99.90
32522;DHT22;18963;51.504;5.316;2022-10-31T15:39:37;16.20;99.90
32522;DHT22;18963;51.504;5.316;2022-10-31T15:42:03;16.10;99.90
32522;DHT22;18963;51.504;5.316;2022-10-31T15:44:34;16.00;99.90
32522;DHT22;18963;51.504;5.316;2022-10-31T15:47:06;16.00;99.90
32522;DHT22;18963;51.504;5.316;2022-10-31T15:52:31;15.80;99.90
32522;DHT22;18963;51.504;5.316;2022-10-31T15:55:04;15.70;99.90
32522;DHT22;18963;51.504;5.316;2022-10-31T15:57:31;15.60;99.90
32522;DHT22;18963;51.504;5.316;2022-10-31T15:59:58;15.50;99.90
32522;DHT22;18963;51.504;5.316;2022-10-31T16:02:26;15.40;99.90
32522;DHT22;18963;51.504;5.316;2022-10-31T16:07:22;15.30;99.90
32522;DHT22;18963;51.504;5.316;2022-10-31T16:09:55;15.20;99.90
32522;DHT22;18963;51.504;5.316;2022-10-31T16:12:23;15.10;99.90
32522;DHT22;18963;51.504;5.316;2022-10-31T16:14:51;15.00;99.90
32522;DHT22;18963;51.504;5.316;2022-10-31T16:17:21;14.90;99.90
32522;DHT22;18963;51.504;5.316;2022-10-31T16:19:51;14.80;99.90
32522;DHT22;18963;51.504;5.316;2022-10-31T16:22:27;14.70;99.90
32522;DHT22;18963;51.504;5.316;2022-10-31T16:25:13;14.60;99.90
32522;DHT22;18963;51.504;5.316;2022-10-31T16:27:40;14.50;99.90
32522;DHT22;18963;51.504;5.316;2022-10-31T16:30:41;14.40;99.90
32522;DHT22;18963;51.504;5.316;2022-10-31T16:33:30;14.40;99.90
32522;DHT22;18963;51.504;5.316;2022-10-31T16:36:23;14.30;99.90
32522;DHT22;18963;51.504;5.316;2022-10-31T16:38:46;14.20;99.90
32522;DHT22;18963;51.504;5.316;2022-10-31T16:41:12;14.20;99.90
32522;DHT22;18963;51.504;5.316;2022-10-31T16:43:37;14.10;99.90
32522;DHT22;18963;51.504;5.316;2022-10-31T16:46:03;14.00;99.90
32522;DHT22;18963;51.504;5.316;2022-10-31T16:48:29;14.00;99.90
32522;DHT22;18963;51.504;5.316;2022-10-31T16:50:55;13.90;99.90
32522;DHT22;18963;51.504;5.316;2022-10-31T16:53:20;13.90;99.90
32522;DHT22;18963;51.504;5.316;2022-10-31T16:55:54;13.90;99.90
32522;DHT22;18963;51.504;5.316;2022-10-31T16:58:31;13.90;99.90
32522;DHT22;18963;51.504;5.316;2022-10-31T17:00:59;14.00;99.90
32522;DHT22;18963;51.504;5.316;2022-10-31T17:03:26;14.00;99.90
32522;DHT22;18963;51.504;5.316;2022-10-31T17:05:52;14.00;99.90
32522;DHT22;18963;51.504;5.316;2022-10-31T17:08:20;14.00;99.90
32522;DHT22;18963;51.504;5.316;2022-10-31T17:10:47;14.10;99.90
32522;DHT22;18963;51.504;5.316;2022-10-31T17:13:38;14.10;99.90
32522;DHT22;18963;51.504;5.316;2022-10-31T17:16:04;14.10;99.90
32522;DHT22;18963;51.504;5.316;2022-10-31T17:18:30;14.20;99.90
32522;DHT22;18963;51.504;5.316;2022-10-31T17:21:01;14.20;99.90
32522;DHT22;18963;51.504;5.316;2022-10-31T17:23:28;14.10;99.90
32522;DHT22;18963;51.504;5.316;2022-10-31T17:25:54;14.10;99.90
32522;DHT22;18963;51.504;5.316;2022-10-31T17:28:20;14.10;99.90
32522;DHT22;18963;51.504;5.316;2022-10-31T17:30:46;14.20;99.90
32522;DHT22;18963;51.504;5.316;2022-10-31T17:33:12;14.30;99.90
32522;DHT22;18963;51.504;5.316;2022-10-31T17:35:42;14.30;99.90
32522;DHT22;18963;51.504;5.316;2022-10-31T17:38:09;14.30;99.90
32522;DHT22;18963;51.504;5.316;2022-10-31T17:40:37;14.30;99.90
32522;DHT22;18963;51.504;5.316;2022-10-31T17:43:03;14.30;99.90
32522;DHT22;18963;51.504;5.316;2022-10-31T17:45:29;14.30;99.90
32522;DHT22;18963;51.504;5.316;2022-10-31T17:47:58;14.40;99.90
32522;DHT22;18963;51.504;5.316;2022-10-31T17:50:24;14.30;99.90
32522;DHT22;18963;51.504;5.316;2022-10-31T17:52:51;14.40;99.90
32522;DHT22;18963;51.504;5.316;2022-10-31T17:55:18;14.40;99.90
32522;DHT22;18963;51.504;5.316;2022-10-31T17:57:43;14.30;99.90
32522;DHT22;18963;51.504;5.316;2022-10-31T18:00:19;14.30;99.90
32522;DHT22;18963;51.504;5.316;2022-10-31T18:02:50;14.30;99.90